sensor_id;sensor_type;location;lat;lon;timestamp;temperature;humidity
19039;DHT22;9652;49.014;12.052;2023-02-15T00:02:00;5.30;66.60
19039;DHT22;9652;49.014;12.052;2023-02-15T00:04:27;5.30;66.70
19039;DHT22;9652;49.014;12.052;2023-02-15T00:07:13;5.20;66.60
19039;DHT22;9652;49.014;12.052;2023-02-15T00:09:41;5.20;66.70
19039;DHT22;9652;49.014;12.052;2023-02-15T00:12:09;5.20;66.90
19039;DHT22;9652;49.014;12.052;2023-02-15T00:14:36;5.20;66.80
19039;DHT22;9652;49.014;12.052;2023-02-15T00:17:05;5.10;66.80
19039;DHT22;9652;49.014;12.052;2023-02-15T00:19:32;5.10;66.90
19039;DHT22;9652;49.014;12.052;2023-02-15T00:21:59;5.10;67.10
19039;DHT22;9652;49.014;12.052;2023-02-15T00:24:26;5.10;67.20
19039;DHT22;9652;49.014;12.052;2023-02-15T00:26:53;5.10;67.40
19039;DHT22;9652;49.014;12.052;2023-02-15T00:29:20;5.10;67.40
19039;DHT22;9652;49.014;12.052;2023-02-15T00:31:48;5.10;67.40
19039;DHT22;9652;49.014;12.052;2023-02-15T00:34:19;5.10;67.60
19039;DHT22;9652;49.014;12.052;2023-02-15T00:36:48;5.10;67.70
19039;DHT22;9652;49.014;12.052;2023-02-15T00:39:16;5.10;67.60
19039;DHT22;9652;49.014;12.052;2023-02-15T00:41:44;5.10;67.60
19039;DHT22;9652;49.014;12.052;2023-02-15T00:44:12;5.10;67.60
19039;DHT22;9652;49.014;12.052;2023-02-15T00:46:41;5.10;67.40
19039;DHT22;9652;49.014;12.052;2023-02-15T00:49:09;5.10;67.60
19039;DHT22;9652;49.014;12.052;2023-02-15T00:51:38;5.10;67.70
19039;DHT22;9652;49.014;12.052;2023-02-15T00:54:06;5.00;67.70
19039;DHT22;9652;49.014;12.052;2023-02-15T00:56:33;5.10;67.90
19039;DHT22;9652;49.014;12.052;2023-02-15T00:59:00;5.10;67.90
19039;DHT22;9652;49.014;12.052;2023-02-15T01:01:28;5.10;67.80
19039;DHT22;9652;49.014;12.052;2023-02-15T01:03:55;5.10;67.80
19039;DHT22;9652;49.014;12.052;2023-02-15T01:06:22;5.10;67.70
19039;DHT22;9652;49.014;12.052;2023-02-15T01:08:50;5.30;67.80
19039;DHT22;9652;49.014;12.052;2023-02-15T01:11:21;5.10;67.40
19039;DHT22;9652;49.014;12.052;2023-02-15T01:13:50;5.10;67.20
19039;DHT22;9652;49.014;12.052;2023-02-15T01:16:20;5.10;67.10
19039;DHT22;9652;49.014;12.052;2023-02-15T01:18:48;5.10;67.10
19039;DHT22;9652;49.014;12.052;2023-02-15T01:21:17;5.10;67.30
19039;DHT22;9652;49.014;12.052;2023-02-15T01:23:45;5.00;67.40
19039;DHT22;9652;49.014;12.052;2023-02-15T01:26:15;5.00;67.60
19039;DHT22;9652;49.014;12.052;2023-02-15T01:28:43;5.00;67.90
19039;DHT22;9652;49.014;12.052;2023-02-15T01:31:13;5.00;67.90
19039;DHT22;9652;49.014;12.052;2023-02-15T01:33:41;5.10;68.00
19039;DHT22;9652;49.014;12.052;2023-02-15T01:36:09;5.10;67.90
19039;DHT22;9652;49.014;12.052;2023-02-15T01:38:38;5.10;68.10
19039;DHT22;9652;49.014;12.052;2023-02-15T01:41:07;5.10;68.10
19039;DHT22;9652;49.014;12.052;2023-02-15T01:43:51;5.10;68.10
19039;DHT22;9652;49.014;12.052;2023-02-15T01:46:24;5.10;68.00
19039;DHT22;9652;49.014;12.052;2023-02-15T01:48:58;5.10;68.10
19039;DHT22;9652;49.014;12.052;2023-02-15T01:51:32;5.10;68.10
19039;DHT22;9652;49.014;12.052;2023-02-15T01:54:05;5.10;68.10
19039;DHT22;9652;49.014;12.052;2023-02-15T01:56:37;5.10;68.20
19039;DHT22;9652;49.014;12.052;2023-02-15T01:59:11;5.20;68.30
19039;DHT22;9652;49.014;12.052;2023-02-15T02:01:42;5.20;68.30
19039;DHT22;9652;49.014;12.052;2023-02-15T02:04:15;5.20;68.10
19039;DHT22;9652;49.014;12.052;2023-02-15T02:06:47;5.20;67.80
19039;DHT22;9652;49.014;12.052;2023-02-15T02:09:16;5.20;67.40
19039;DHT22;9652;49.014;12.052;2023-02-15T02:11:46;5.20;67.20
19039;DHT22;9652;49.014;12.052;2023-02-15T02:14:16;5.20;67.30
19039;DHT22;9652;49.014;12.052;2023-02-15T02:16:49;5.20;67.40
19039;DHT22;9652;49.014;12.052;2023-02-15T02:23:04;5.10;67.50
19039;DHT22;9652;49.014;12.052;2023-02-15T02:35:20;5.10;68.00
19039;DHT22;9652;49.014;12.052;2023-02-15T02:38:02;5.10;67.60
19039;DHT22;9652;49.014;12.052;2023-02-15T02:40:43;5.10;67.40
19039;DHT22;9652;49.014;12.052;2023-02-15T02:43:23;5.00;67.30
19039;DHT22;9652;49.014;12.052;2023-02-15T02:45:58;5.10;67.40
19039;DHT22;9652;49.014;12.052;2023-02-15T02:48:32;5.00;67.50
19039;DHT22;9652;49.014;12.052;2023-02-15T02:51:01;5.00;67.60
19039;DHT22;9652;49.014;12.052;2023-02-15T02:53:30;5.00;67.70
19039;DHT22;9652;49.014;12.052;2023-02-15T02:56:05;5.00;67.90
19039;DHT22;9652;49.014;12.052;2023-02-15T02:58:48;5.00;68.00
19039;DHT22;9652;49.014;12.052;2023-02-15T03:01:23;5.00;67.90
19039;DHT22;9652;49.014;12.052;2023-02-15T03:03:56;5.00;67.80
19039;DHT22;9652;49.014;12.052;2023-02-15T03:06:33;4.90;67.30
19039;DHT22;9652;49.014;12.052;2023-02-15T03:09:09;4.90;67.40
19039;DHT22;9652;49.014;12.052;2023-02-15T03:11:43;4.90;67.50
19039;DHT22;9652;49.014;12.052;2023-02-15T03:14:14;4.90;67.70
19039;DHT22;9652;49.014;12.052;2023-02-15T03:16:46;4.90;67.80
19039;DHT22;9652;49.014;12.052;2023-02-15T03:19:17;4.90;68.00
19039;DHT22;9652;49.014;12.052;2023-02-15T03:21:51;4.90;68.10
19039;DHT22;9652;49.014;12.052;2023-02-15T03:24:32;4.90;68.20
19039;DHT22;9652;49.014;12.052;2023-02-15T03:27:04;4.90;68.10
19039;DHT22;9652;49.014;12.052;2023-02-15T03:29:37;4.90;68.10
19039;DHT22;9652;49.014;12.052;2023-02-15T03:32:07;5.00;68.20
19039;DHT22;9652;49.014;12.052;2023-02-15T03:34:37;5.00;68.20
19039;DHT22;9652;49.014;12.052;2023-02-15T03:37:10;5.00;68.10
19039;DHT22;9652;49.014;12.052;2023-02-15T03:39:45;5.00;68.00
19039;DHT22;9652;49.014;12.052;2023-02-15T03:42:22;5.00;67.90
19039;DHT22;9652;49.014;12.052;2023-02-15T03:44:56;5.10;67.90
19039;DHT22;9652;49.014;12.052;2023-02-15T03:47:31;5.00;67.70
19039;DHT22;9652;49.014;12.052;2023-02-15T03:50:03;5.10;67.80
19039;DHT22;9652;49.014;12.052;2023-02-15T03:52:55;5.10;67.90
19039;DHT22;9652;49.014;12.052;2023-02-15T03:55:24;5.00;67.80
19039;DHT22;9652;49.014;12.052;2023-02-15T03:57:52;5.10;67.70
19039;DHT22;9652;49.014;12.052;2023-02-15T04:00:48;5.10;67.60
19039;DHT22;9652;49.014;12.052;2023-02-15T04:03:39;5.10;67.50
19039;DHT22;9652;49.014;12.052;2023-02-15T04:06:09;5.00;67.40
19039;DHT22;9652;49.014;12.052;2023-02-15T04:08:38;5.00;67.40
19039;DHT22;9652;49.014;12.052;2023-02-15T04:11:23;5.10;67.50
19039;DHT22;9652;49.014;12.052;2023-02-15T04:13:50;5.00;67.50
19039;DHT22;9652;49.014;12.052;2023-02-15T04:16:21;5.00;67.40
19039;DHT22;9652;49.014;12.052;2023-02-15T04:18:48;5.00;67.60
19039;DHT22;9652;49.014;12.052;2023-02-15T04:21:33;5.00;67.40
19039;DHT22;9652;49.014;12.052;2023-02-15T04:24:19;5.00;67.30
19039;DHT22;9652;49.014;12.052;2023-02-15T04:27:04;5.00;67.30
19039;DHT22;9652;49.014;12.052;2023-02-15T04:29:32;5.00;67.40
19039;DHT22;9652;49.014;12.052;2023-02-15T04:32:00;5.00;67.40
19039;DHT22;9652;49.014;12.052;2023-02-15T04:34:27;5.00;67.50
19039;DHT22;9652;49.014;12.052;2023-02-15T04:36:55;5.00;67.60
19039;DHT22;9652;49.014;12.052;2023-02-15T04:39:23;4.90;67.60
19039;DHT22;9652;49.014;12.052;2023-02-15T04:41:50;5.00;67.70
19039;DHT22;9652;49.014;12.052;2023-02-15T04:44:17;5.00;67.60
19039;DHT22;9652;49.014;12.052;2023-02-15T04:46:44;4.90;67.70
19039;DHT22;9652;49.014;12.052;2023-02-15T04:49:11;4.90;67.70
19039;DHT22;9652;49.014;12.052;2023-02-15T04:51:38;5.00;67.90
19039;DHT22;9652;49.014;12.052;2023-02-15T04:54:05;5.00;67.90
19039;DHT22;9652;49.014;12.052;2023-02-15T04:56:34;4.90;67.70
19039;DHT22;9652;49.014;12.052;2023-02-15T04:59:03;5.00;67.70
19039;DHT22;9652;49.014;12.052;2023-02-15T05:01:30;5.00;67.70
19039;DHT22;9652;49.014;12.052;2023-02-15T05:03:57;4.90;67.60
19039;DHT22;9652;49.014;12.052;2023-02-15T05:06:24;4.90;67.60
19039;DHT22;9652;49.014;12.052;2023-02-15T05:08:51;4.90;67.50
19039;DHT22;9652;49.014;12.052;2023-02-15T05:11:18;4.90;67.50
19039;DHT22;9652;49.014;12.052;2023-02-15T05:13:46;4.90;67.50
19039;DHT22;9652;49.014;12.052;2023-02-15T05:16:13;4.90;67.60
19039;DHT22;9652;49.014;12.052;2023-02-15T05:18:40;4.90;67.60
19039;DHT22;9652;49.014;12.052;2023-02-15T05:21:07;4.90;67.50
19039;DHT22;9652;49.014;12.052;2023-02-15T05:23:35;4.90;67.50
19039;DHT22;9652;49.014;12.052;2023-02-15T05:26:02;4.90;67.60
19039;DHT22;9652;49.014;12.052;2023-02-15T05:28:48;4.90;67.60
19039;DHT22;9652;49.014;12.052;2023-02-15T05:31:17;4.90;67.60
19039;DHT22;9652;49.014;12.052;2023-02-15T05:33:45;4.90;67.70
19039;DHT22;9652;49.014;12.052;2023-02-15T05:36:12;4.80;67.60
19039;DHT22;9652;49.014;12.052;2023-02-15T05:38:40;4.80;67.70
19039;DHT22;9652;49.014;12.052;2023-02-15T05:41:08;4.90;67.60
19039;DHT22;9652;49.014;12.052;2023-02-15T05:43:37;4.90;67.60
19039;DHT22;9652;49.014;12.052;2023-02-15T05:46:06;4.80;67.60
19039;DHT22;9652;49.014;12.052;2023-02-15T05:48:33;4.80;67.60
19039;DHT22;9652;49.014;12.052;2023-02-15T05:51:03;4.80;67.60
19039;DHT22;9652;49.014;12.052;2023-02-15T05:53:33;4.90;67.70
19039;DHT22;9652;49.014;12.052;2023-02-15T05:56:02;4.90;67.60
19039;DHT22;9652;49.014;12.052;2023-02-15T05:58:33;4.80;67.60
19039;DHT22;9652;49.014;12.052;2023-02-15T06:01:08;4.90;67.60
19039;DHT22;9652;49.014;12.052;2023-02-15T06:03:36;4.80;67.60
19039;DHT22;9652;49.014;12.052;2023-02-15T06:06:04;4.90;67.70
19039;DHT22;9652;49.014;12.052;2023-02-15T06:08:32;4.90;67.60
19039;DHT22;9652;49.014;12.052;2023-02-15T06:11:00;4.90;67.50
19039;DHT22;9652;49.014;12.052;2023-02-15T06:13:27;4.90;67.60
19039;DHT22;9652;49.014;12.052;2023-02-15T06:15:55;4.80;67.60
19039;DHT22;9652;49.014;12.052;2023-02-15T06:18:23;4.80;67.40
19039;DHT22;9652;49.014;12.052;2023-02-15T06:20:50;4.80;67.40
19039;DHT22;9652;49.014;12.052;2023-02-15T06:23:19;4.80;67.40
19039;DHT22;9652;49.014;12.052;2023-02-15T06:25:46;4.80;67.40
19039;DHT22;9652;49.014;12.052;2023-02-15T06:28:13;4.80;67.60
19039;DHT22;9652;49.014;12.052;2023-02-15T06:30:40;4.80;67.70
19039;DHT22;9652;49.014;12.052;2023-02-15T06:33:07;4.80;67.80
19039;DHT22;9652;49.014;12.052;2023-02-15T06:35:36;4.80;67.90
19039;DHT22;9652;49.014;12.052;2023-02-15T06:38:03;4.80;67.90
19039;DHT22;9652;49.014;12.052;2023-02-15T06:40:30;4.80;67.90
19039;DHT22;9652;49.014;12.052;2023-02-15T06:42:57;4.80;67.80
19039;DHT22;9652;49.014;12.052;2023-02-15T06:45:24;4.80;67.60
19039;DHT22;9652;49.014;12.052;2023-02-15T06:47:51;4.80;67.60
19039;DHT22;9652;49.014;12.052;2023-02-15T06:50:18;4.80;67.80
19039;DHT22;9652;49.014;12.052;2023-02-15T06:52:47;4.80;67.90
19039;DHT22;9652;49.014;12.052;2023-02-15T06:55:14;4.80;67.90
19039;DHT22;9652;49.014;12.052;2023-02-15T06:57:41;4.80;67.80
19039;DHT22;9652;49.014;12.052;2023-02-15T07:00:09;4.80;67.80
19039;DHT22;9652;49.014;12.052;2023-02-15T07:02:37;4.80;67.90
19039;DHT22;9652;49.014;12.052;2023-02-15T07:05:05;4.80;68.10
19039;DHT22;9652;49.014;12.052;2023-02-15T07:07:32;4.80;68.20
19039;DHT22;9652;49.014;12.052;2023-02-15T07:10:00;4.80;68.20
19039;DHT22;9652;49.014;12.052;2023-02-15T07:12:27;4.80;68.10
19039;DHT22;9652;49.014;12.052;2023-02-15T07:15:10;4.90;68.20
19039;DHT22;9652;49.014;12.052;2023-02-15T07:17:39;4.80;68.10
19039;DHT22;9652;49.014;12.052;2023-02-15T07:20:09;4.80;68.30
19039;DHT22;9652;49.014;12.052;2023-02-15T07:22:38;4.80;68.40
19039;DHT22;9652;49.014;12.052;2023-02-15T07:25:09;4.90;68.40
19039;DHT22;9652;49.014;12.052;2023-02-15T07:27:36;4.90;68.40
19039;DHT22;9652;49.014;12.052;2023-02-15T07:30:05;4.90;68.40
19039;DHT22;9652;49.014;12.052;2023-02-15T07:32:35;4.90;68.50
19039;DHT22;9652;49.014;12.052;2023-02-15T07:35:22;4.90;68.40
19039;DHT22;9652;49.014;12.052;2023-02-15T07:37:50;5.00;68.50
19039;DHT22;9652;49.014;12.052;2023-02-15T07:40:20;5.00;68.40
19039;DHT22;9652;49.014;12.052;2023-02-15T07:42:49;5.00;68.50
19039;DHT22;9652;49.014;12.052;2023-02-15T07:45:18;5.00;68.30
19039;DHT22;9652;49.014;12.052;2023-02-15T07:47:45;5.00;68.30
19039;DHT22;9652;49.014;12.052;2023-02-15T07:50:12;5.00;68.20
19039;DHT22;9652;49.014;12.052;2023-02-15T07:52:40;5.00;68.10
19039;DHT22;9652;49.014;12.052;2023-02-15T07:55:07;5.00;68.10
19039;DHT22;9652;49.014;12.052;2023-02-15T07:57:42;5.00;68.00
19039;DHT22;9652;49.014;12.052;2023-02-15T08:00:11;5.00;68.20
19039;DHT22;9652;49.014;12.052;2023-02-15T08:02:40;5.00;68.10
19039;DHT22;9652;49.014;12.052;2023-02-15T08:05:07;5.00;68.30
19039;DHT22;9652;49.014;12.052;2023-02-15T08:07:34;5.00;68.30
19039;DHT22;9652;49.014;12.052;2023-02-15T08:10:01;5.00;68.30
19039;DHT22;9652;49.014;12.052;2023-02-15T08:12:29;5.00;68.40
19039;DHT22;9652;49.014;12.052;2023-02-15T08:14:57;5.10;68.60
19039;DHT22;9652;49.014;12.052;2023-02-15T08:17:24;5.10;68.60
19039;DHT22;9652;49.014;12.052;2023-02-15T08:19:52;5.10;68.60
19039;DHT22;9652;49.014;12.052;2023-02-15T08:22:19;5.10;68.50
19039;DHT22;9652;49.014;12.052;2023-02-15T08:24:46;5.10;68.60
19039;DHT22;9652;49.014;12.052;2023-02-15T08:27:13;5.10;68.70
19039;DHT22;9652;49.014;12.052;2023-02-15T08:29:40;5.20;68.90
19039;DHT22;9652;49.014;12.052;2023-02-15T08:32:10;5.20;68.90
19039;DHT22;9652;49.014;12.052;2023-02-15T08:34:41;5.20;68.60
19039;DHT22;9652;49.014;12.052;2023-02-15T08:37:08;5.30;68.70
19039;DHT22;9652;49.014;12.052;2023-02-15T08:39:35;5.30;68.80
19039;DHT22;9652;49.014;12.052;2023-02-15T08:42:03;5.30;68.60
19039;DHT22;9652;49.014;12.052;2023-02-15T08:44:30;5.30;68.40
19039;DHT22;9652;49.014;12.052;2023-02-15T08:46:57;5.30;68.40
19039;DHT22;9652;49.014;12.052;2023-02-15T08:49:30;5.30;68.40
19039;DHT22;9652;49.014;12.052;2023-02-15T08:51:58;5.30;68.50
19039;DHT22;9652;49.014;12.052;2023-02-15T08:54:26;5.40;68.60
19039;DHT22;9652;49.014;12.052;2023-02-15T08:56:53;5.40;68.70
19039;DHT22;9652;49.014;12.052;2023-02-15T08:59:21;5.40;68.80
19039;DHT22;9652;49.014;12.052;2023-02-15T09:01:51;5.40;68.60
19039;DHT22;9652;49.014;12.052;2023-02-15T09:04:19;5.40;68.60
19039;DHT22;9652;49.014;12.052;2023-02-15T09:06:50;5.50;68.50
19039;DHT22;9652;49.014;12.052;2023-02-15T09:09:18;5.50;68.40
19039;DHT22;9652;49.014;12.052;2023-02-15T09:11:47;5.50;68.30
19039;DHT22;9652;49.014;12.052;2023-02-15T09:14:17;5.50;68.30
19039;DHT22;9652;49.014;12.052;2023-02-15T09:16:47;5.50;68.30
19039;DHT22;9652;49.014;12.052;2023-02-15T09:19:18;5.50;68.20
19039;DHT22;9652;49.014;12.052;2023-02-15T09:21:46;5.60;68.20
19039;DHT22;9652;49.014;12.052;2023-02-15T09:24:16;5.60;68.30
19039;DHT22;9652;49.014;12.052;2023-02-15T09:26:46;5.60;68.30
19039;DHT22;9652;49.014;12.052;2023-02-15T09:29:15;5.60;68.30
19039;DHT22;9652;49.014;12.052;2023-02-15T09:31:44;5.60;68.20
19039;DHT22;9652;49.014;12.052;2023-02-15T09:34:15;5.60;68.20
19039;DHT22;9652;49.014;12.052;2023-02-15T09:36:44;5.70;68.20
19039;DHT22;9652;49.014;12.052;2023-02-15T09:39:15;5.70;68.20
19039;DHT22;9652;49.014;12.052;2023-02-15T09:45:06;5.80;68.50
19039;DHT22;9652;49.014;12.052;2023-02-15T09:48:09;5.80;68.30
19039;DHT22;9652;49.014;12.052;2023-02-15T09:51:07;5.90;68.30
19039;DHT22;9652;49.014;12.052;2023-02-15T09:54:02;5.90;68.30
19039;DHT22;9652;49.014;12.052;2023-02-15T09:56:47;6.00;68.30
19039;DHT22;9652;49.014;12.052;2023-02-15T09:59:25;6.00;68.20
19039;DHT22;9652;49.014;12.052;2023-02-15T10:02:11;6.00;68.00
19039;DHT22;9652;49.014;12.052;2023-02-15T10:05:00;6.10;67.90
19039;DHT22;9652;49.014;12.052;2023-02-15T10:08:00;6.10;67.70
19039;DHT22;9652;49.014;12.052;2023-02-15T10:10:56;6.10;67.70
19039;DHT22;9652;49.014;12.052;2023-02-15T10:14:01;6.10;67.80
19039;DHT22;9652;49.014;12.052;2023-02-15T10:16:43;6.20;68.00
19039;DHT22;9652;49.014;12.052;2023-02-15T10:19:23;6.20;67.80
19039;DHT22;9652;49.014;12.052;2023-02-15T10:22:11;6.20;67.80
19039;DHT22;9652;49.014;12.052;2023-02-15T10:25:02;6.30;67.80
19039;DHT22;9652;49.014;12.052;2023-02-15T10:27:44;6.30;67.60
19039;DHT22;9652;49.014;12.052;2023-02-15T10:30:15;6.30;67.60
19039;DHT22;9652;49.014;12.052;2023-02-15T10:32:57;6.40;67.60
19039;DHT22;9652;49.014;12.052;2023-02-15T10:35:31;6.40;67.60
19039;DHT22;9652;49.014;12.052;2023-02-15T10:38:16;6.50;67.60
19039;DHT22;9652;49.014;12.052;2023-02-15T10:41:01;6.50;67.60
19039;DHT22;9652;49.014;12.052;2023-02-15T10:43:55;6.60;67.60
19039;DHT22;9652;49.014;12.052;2023-02-15T10:46:45;6.60;67.30
19039;DHT22;9652;49.014;12.052;2023-02-15T10:49:38;6.60;67.30
19039;DHT22;9652;49.014;12.052;2023-02-15T10:52:25;6.70;67.40
19039;DHT22;9652;49.014;12.052;2023-02-15T10:55:06;6.80;67.50
19039;DHT22;9652;49.014;12.052;2023-02-15T10:57:46;6.80;67.50
19039;DHT22;9652;49.014;12.052;2023-02-15T11:00:25;6.90;67.40
19039;DHT22;9652;49.014;12.052;2023-02-15T11:03:14;7.00;67.40
19039;DHT22;9652;49.014;12.052;2023-02-15T11:06:00;7.00;66.90
19039;DHT22;9652;49.014;12.052;2023-02-15T11:08:34;7.00;66.90
19039;DHT22;9652;49.014;12.052;2023-02-15T11:11:06;7.10;66.80
19039;DHT22;9652;49.014;12.052;2023-02-15T11:13:41;7.10;66.70
19039;DHT22;9652;49.014;12.052;2023-02-15T11:16:15;7.10;66.50
19039;DHT22;9652;49.014;12.052;2023-02-15T11:18:51;7.10;66.50
19039;DHT22;9652;49.014;12.052;2023-02-15T11:21:24;7.20;66.30
19039;DHT22;9652;49.014;12.052;2023-02-15T11:23:55;7.20;66.40
19039;DHT22;9652;49.014;12.052;2023-02-15T11:26:28;7.20;66.20
19039;DHT22;9652;49.014;12.052;2023-02-15T11:29:04;7.20;65.90
19039;DHT22;9652;49.014;12.052;2023-02-15T11:31:41;7.20;65.90
19039;DHT22;9652;49.014;12.052;2023-02-15T11:34:18;7.20;65.90
19039;DHT22;9652;49.014;12.052;2023-02-15T11:36:52;7.20;65.70
19039;DHT22;9652;49.014;12.052;2023-02-15T11:39:24;7.20;65.90
19039;DHT22;9652;49.014;12.052;2023-02-15T11:42:04;7.30;65.80
19039;DHT22;9652;49.014;12.052;2023-02-15T11:44:39;7.20;65.90
19039;DHT22;9652;49.014;12.052;2023-02-15T11:47:11;7.30;66.10
19039;DHT22;9652;49.014;12.052;2023-02-15T11:49:40;7.30;66.30
19039;DHT22;9652;49.014;12.052;2023-02-15T11:52:12;7.30;66.20
19039;DHT22;9652;49.014;12.052;2023-02-15T11:54:42;7.30;66.10
19039;DHT22;9652;49.014;12.052;2023-02-15T11:57:14;7.30;66.00
19039;DHT22;9652;49.014;12.052;2023-02-15T11:59:48;7.30;66.50
19039;DHT22;9652;49.014;12.052;2023-02-15T12:02:21;7.30;65.70
19039;DHT22;9652;49.014;12.052;2023-02-15T12:04:54;7.30;65.70
19039;DHT22;9652;49.014;12.052;2023-02-15T12:07:27;7.30;65.60
19039;DHT22;9652;49.014;12.052;2023-02-15T12:10:03;7.30;65.60
19039;DHT22;9652;49.014;12.052;2023-02-15T12:12:37;7.30;65.60
19039;DHT22;9652;49.014;12.052;2023-02-15T12:15:07;7.30;65.60
19039;DHT22;9652;49.014;12.052;2023-02-15T12:17:39;7.30;65.60
19039;DHT22;9652;49.014;12.052;2023-02-15T12:20:24;7.30;65.60
19039;DHT22;9652;49.014;12.052;2023-02-15T12:23:00;7.30;65.60
19039;DHT22;9652;49.014;12.052;2023-02-15T12:25:35;7.30;66.00
19039;DHT22;9652;49.014;12.052;2023-02-15T12:28:04;7.30;66.00
19039;DHT22;9652;49.014;12.052;2023-02-15T12:30:48;7.30;66.10
19039;DHT22;9652;49.014;12.052;2023-02-15T12:33:24;7.40;66.10
19039;DHT22;9652;49.014;12.052;2023-02-15T12:35:59;7.40;65.80
19039;DHT22;9652;49.014;12.052;2023-02-15T12:38:30;7.40;65.70
19039;DHT22;9652;49.014;12.052;2023-02-15T12:40:59;7.40;65.70
19039;DHT22;9652;49.014;12.052;2023-02-15T12:43:31;7.40;65.70
19039;DHT22;9652;49.014;12.052;2023-02-15T12:46:18;7.40;65.80
19039;DHT22;9652;49.014;12.052;2023-02-15T12:49:05;7.50;65.50
19039;DHT22;9652;49.014;12.052;2023-02-15T12:51:46;7.50;65.50
19039;DHT22;9652;49.014;12.052;2023-02-15T12:54:39;7.50;65.60
19039;DHT22;9652;49.014;12.052;2023-02-15T12:57:24;7.50;65.50
19039;DHT22;9652;49.014;12.052;2023-02-15T12:59:59;7.50;65.50
19039;DHT22;9652;49.014;12.052;2023-02-15T13:02:33;7.50;65.60
19039;DHT22;9652;49.014;12.052;2023-02-15T13:05:13;7.50;65.30
19039;DHT22;9652;49.014;12.052;2023-02-15T13:07:49;7.50;65.30
19039;DHT22;9652;49.014;12.052;2023-02-15T13:10:21;7.40;65.10
19039;DHT22;9652;49.014;12.052;2023-02-15T13:12:51;7.40;65.20
19039;DHT22;9652;49.014;12.052;2023-02-15T13:15:30;7.40;65.40
19039;DHT22;9652;49.014;12.052;2023-02-15T13:18:04;7.40;65.40
19039;DHT22;9652;49.014;12.052;2023-02-15T13:20:37;7.40;65.50
19039;DHT22;9652;49.014;12.052;2023-02-15T13:23:23;7.40;65.50
19039;DHT22;9652;49.014;12.052;2023-02-15T13:25:56;7.40;65.30
19039;DHT22;9652;49.014;12.052;2023-02-15T13:28:31;7.40;65.30
19039;DHT22;9652;49.014;12.052;2023-02-15T13:31:04;7.40;65.10
19039;DHT22;9652;49.014;12.052;2023-02-15T13:33:39;7.40;65.10
19039;DHT22;9652;49.014;12.052;2023-02-15T13:36:17;7.40;65.30
19039;DHT22;9652;49.014;12.052;2023-02-15T13:38:58;7.30;65.30
19039;DHT22;9652;49.014;12.052;2023-02-15T13:41:47;7.30;65.20
19039;DHT22;9652;49.014;12.052;2023-02-15T13:44:26;7.30;65.10
19039;DHT22;9652;49.014;12.052;2023-02-15T13:47:15;7.30;65.20
19039;DHT22;9652;49.014;12.052;2023-02-15T13:50:00;7.30;65.30
19039;DHT22;9652;49.014;12.052;2023-02-15T13:52:39;7.30;65.30
19039;DHT22;9652;49.014;12.052;2023-02-15T13:55:37;7.30;65.30
19039;DHT22;9652;49.014;12.052;2023-02-15T13:58:50;7.30;65.40
19039;DHT22;9652;49.014;12.052;2023-02-15T14:01:36;7.30;65.50
19039;DHT22;9652;49.014;12.052;2023-02-15T14:04:43;7.20;65.50
19039;DHT22;9652;49.014;12.052;2023-02-15T14:07:41;7.20;65.40
19039;DHT22;9652;49.014;12.052;2023-02-15T14:13:41;7.20;65.50
19039;DHT22;9652;49.014;12.052;2023-02-15T14:16:28;7.20;65.40
19039;DHT22;9652;49.014;12.052;2023-02-15T14:19:12;7.20;65.30
19039;DHT22;9652;49.014;12.052;2023-02-15T14:21:48;7.20;65.30
19039;DHT22;9652;49.014;12.052;2023-02-15T14:24:29;7.20;65.40
19039;DHT22;9652;49.014;12.052;2023-02-15T14:27:13;7.20;65.40
19039;DHT22;9652;49.014;12.052;2023-02-15T14:29:51;7.20;65.30
19039;DHT22;9652;49.014;12.052;2023-02-15T14:32:26;7.20;65.20
19039;DHT22;9652;49.014;12.052;2023-02-15T14:34:59;7.20;65.20
19039;DHT22;9652;49.014;12.052;2023-02-15T14:37:40;7.20;65.10
19039;DHT22;9652;49.014;12.052;2023-02-15T14:40:19;7.20;65.40
19039;DHT22;9652;49.014;12.052;2023-02-15T14:43:22;7.10;65.40
19039;DHT22;9652;49.014;12.052;2023-02-15T14:46:03;7.10;65.40
19039;DHT22;9652;49.014;12.052;2023-02-15T14:48:41;7.10;65.50
19039;DHT22;9652;49.014;12.052;2023-02-15T14:57:36;7.10;65.30
19039;DHT22;9652;49.014;12.052;2023-02-15T15:00:30;7.00;65.20
19039;DHT22;9652;49.014;12.052;2023-02-15T15:03:11;7.00;65.10
19039;DHT22;9652;49.014;12.052;2023-02-15T15:05:50;7.00;65.20
19039;DHT22;9652;49.014;12.052;2023-02-15T15:08:27;6.90;65.20
19039;DHT22;9652;49.014;12.052;2023-02-15T15:11:39;6.90;65.20
19039;DHT22;9652;49.014;12.052;2023-02-15T15:17:11;6.90;64.90
19039;DHT22;9652;49.014;12.052;2023-02-15T15:20:04;6.80;64.80
19039;DHT22;9652;49.014;12.052;2023-02-15T15:22:40;6.80;64.90
19039;DHT22;9652;49.014;12.052;2023-02-15T15:25:11;6.70;64.80
19039;DHT22;9652;49.014;12.052;2023-02-15T15:28:00;6.70;65.00
19039;DHT22;9652;49.014;12.052;2023-02-15T15:31:00;6.70;65.30
19039;DHT22;9652;49.014;12.052;2023-02-15T15:33:55;6.60;65.40
19039;DHT22;9652;49.014;12.052;2023-02-15T15:40:40;6.60;65.50
19039;DHT22;9652;49.014;12.052;2023-02-15T15:43:48;6.60;65.60
19039;DHT22;9652;49.014;12.052;2023-02-15T15:49:37;6.50;65.50
19039;DHT22;9652;49.014;12.052;2023-02-15T15:52:13;6.50;65.70
19039;DHT22;9652;49.014;12.052;2023-02-15T15:54:44;6.50;65.70
19039;DHT22;9652;49.014;12.052;2023-02-15T15:57:20;6.50;65.70
19039;DHT22;9652;49.014;12.052;2023-02-15T15:59:55;6.50;65.60
19039;DHT22;9652;49.014;12.052;2023-02-15T16:02:24;6.40;65.40
19039;DHT22;9652;49.014;12.052;2023-02-15T16:04:52;6.40;65.50
19039;DHT22;9652;49.014;12.052;2023-02-15T16:07:24;6.40;65.50
19039;DHT22;9652;49.014;12.052;2023-02-15T16:09:57;6.40;65.60
19039;DHT22;9652;49.014;12.052;2023-02-15T16:12:28;6.40;65.70
19039;DHT22;9652;49.014;12.052;2023-02-15T16:15:00;6.30;65.60
19039;DHT22;9652;49.014;12.052;2023-02-15T16:17:31;6.30;65.70
19039;DHT22;9652;49.014;12.052;2023-02-15T16:20:03;6.30;66.40
19039;DHT22;9652;49.014;12.052;2023-02-15T16:22:41;6.30;65.40
19039;DHT22;9652;49.014;12.052;2023-02-15T16:25:20;6.30;65.20
19039;DHT22;9652;49.014;12.052;2023-02-15T16:27:55;6.20;65.10
19039;DHT22;9652;49.014;12.052;2023-02-15T16:30:27;6.20;65.30
19039;DHT22;9652;49.014;12.052;2023-02-15T16:33:05;6.10;65.40
19039;DHT22;9652;49.014;12.052;2023-02-15T16:35:35;6.10;65.70
19039;DHT22;9652;49.014;12.052;2023-02-15T16:38:04;6.10;65.80
19039;DHT22;9652;49.014;12.052;2023-02-15T16:40:42;6.10;66.00
19039;DHT22;9652;49.014;12.052;2023-02-15T16:43:18;6.10;66.10
19039;DHT22;9652;49.014;12.052;2023-02-15T16:45:51;6.00;66.00
19039;DHT22;9652;49.014;12.052;2023-02-15T16:48:25;6.00;66.00
19039;DHT22;9652;49.014;12.052;2023-02-15T16:50:55;6.00;66.00
19039;DHT22;9652;49.014;12.052;2023-02-15T16:53:26;6.00;66.00
19039;DHT22;9652;49.014;12.052;2023-02-15T16:55:56;6.10;66.10
19039;DHT22;9652;49.014;12.052;2023-02-15T16:58:30;6.00;66.20
19039;DHT22;9652;49.014;12.052;2023-02-15T17:01:07;6.00;66.20
19039;DHT22;9652;49.014;12.052;2023-02-15T17:03:36;5.90;66.10
19039;DHT22;9652;49.014;12.052;2023-02-15T17:06:19;5.90;66.10